Time,TemperatureF,DewpointF,PressureIn,WindDirection,WindDirectionDegrees,WindSpeedMPH,WindSpeedGustMPH,Humidity,HourlyPrecipIn,Conditions,Clouds,dailyrainin,SoftwareType,DateUTC
2013-09-14 00:00:00,51.0,-99.9,-100.00,North,349,117.0,-999.0,-999,-99.99,,,0.03,,2013-09-14 06:00:00,
2013-09-14 00:52:00,51.0,-99.9,-100.00,North,349,117.0,-999.0,-999,-99.99,,,0.03,,2013-09-14 06:52:00,
2013-09-14 02:00:00,50.0,-99.9,-100.00,North,349,117.0,-999.0,-999,-99.99,,,0.03,,2013-09-14 08:00:00,
2013-09-14 02:52:00,50.0,-99.9,-100.00,North,349,117.0,-999.0,-999,-99.99,,,0.03,,2013-09-14 08:52:00,
2013-09-14 03:00:00,49.0,-99.9,-100.00,North,349,117.0,-999.0,-999,-99.99,,,0.03,,2013-09-14 09:00:00,
2013-09-14 03:54:00,49.0,-99.9,-100.00,North,349,117.0,-999.0,-999,-99.99,,,0.03,,2013-09-14 09:54:00,
2013-09-14 04:00:00,49.0,-99.9,-100.00,North,349,117.0,-999.0,-999,-99.99,,,0.02,,2013-09-14 10:00:00,
2013-09-14 04:53:00,49.0,-99.9,-100.00,North,349,117.0,-999.0,-999,-99.99,,,0.02,,2013-09-14 10:53:00,
2013-09-14 05:00:00,47.0,-99.9,-100.00,NNW,348,117.0,-999.0,-999,-99.99,,,0.02,,2013-09-14 11:00:00,
2013-09-14 05:52:00,47.0,-99.9,-100.00,NNW,348,117.0,-999.0,-999,-99.99,,,0.02,,2013-09-14 11:52:00,
2013-09-14 06:00:00,45.0,-99.9,-100.00,NNW,347,116.0,-999.0,-999,-99.99,,,0.02,,2013-09-14 12:00:00,
2013-09-14 06:53:00,45.0,-99.9,-100.00,NNW,347,116.0,-999.0,-999,-99.99,,,0.02,,2013-09-14 12:53:00,
2013-09-14 07:00:00,46.0,-99.9,-100.00,NNW,347,116.0,-999.0,-999,-99.99,,,0.02,,2013-09-14 13:00:00,
2013-09-14 07:52:00,46.0,-99.9,-100.00,NNW,347,116.0,-999.0,-999,-99.99,,,0.02,,2013-09-14 13:52:00,
2013-09-14 08:00:00,48.0,-99.9,-100.00,NNW,332,116.0,-999.0,-999,-99.99,,,-99.99,,2013-09-14 14:00:00,
2013-09-14 08:52:00,48.0,-99.9,-100.00,NNW,332,116.0,-999.0,-999,-99.99,,,-99.99,,2013-09-14 14:52:00,
2013-09-14 09:00:00,55.0,-99.9,-100.00,West,274,105.0,-999.0,-999,-99.99,,,0.01,,2013-09-14 15:00:00,
2013-09-14 09:53:00,55.0,-99.9,-100.00,West,274,105.0,-999.0,-999,-99.99,,,0.01,,2013-09-14 15:53:00,
2013-09-14 10:00:00,55.0,-99.9,-100.00,WSW,241,86.0,-999.0,-999,-99.99,,,0.00,,2013-09-14 16:00:00,
2013-09-14 10:54:00,55.0,-99.9,-100.00,WSW,241,86.0,-999.0,-999,-99.99,,,0.00,,2013-09-14 16:54:00,
2013-09-14 11:00:00,60.0,-99.9,-100.00,WSW,245,89.0,-999.0,-999,-99.99,,,0.00,,2013-09-14 17:00:00,
2013-09-14 11:54:00,60.0,-99.9,-100.00,WSW,245,89.0,-999.0,-999,-99.99,,,0.00,,2013-09-14 17:54:00,
2013-09-14 12:00:00,58.0,-99.9,-100.00,SSW,207,78.0,-999.0,-999,-99.99,,,0.00,,2013-09-14 18:00:00,
2013-09-14 12:52:00,58.0,-99.9,-100.00,SSW,207,78.0,-999.0,-999,-99.99,,,0.00,,2013-09-14 18:52:00,
2013-09-14 14:00:00,61.0,-99.9,-100.00,SSW,192,72.0,-999.0,-999,-99.99,,,0.00,,2013-09-14 20:00:00,
2013-09-14 14:52:00,61.0,-99.9,-100.00,SSW,192,72.0,-999.0,-999,-99.99,,,0.00,,2013-09-14 20:52:00,
2013-09-14 15:00:00,62.0,-99.9,-100.00,SSW,197,75.0,-999.0,-999,-99.99,,,0.00,,2013-09-14 21:00:00,
2013-09-14 15:54:00,62.0,-99.9,-100.00,SSW,197,75.0,-999.0,-999,-99.99,,,0.00,,2013-09-14 21:54:00,
2013-09-14 16:00:00,56.0,-99.9,-100.00,SSW,204,80.0,-999.0,-999,-99.99,,,0.00,,2013-09-14 22:00:00,
2013-09-14 16:53:00,56.0,-99.9,-100.00,SSW,204,80.0,-999.0,-999,-99.99,,,0.00,,2013-09-14 22:53:00,
2013-09-14 17:00:00,55.0,-99.9,-100.00,WSW,257,92.0,-999.0,-999,-99.99,,,0.00,,2013-09-14 23:00:00,
2013-09-14 17:53:00,55.0,-99.9,-100.00,WSW,257,92.0,-999.0,-999,-99.99,,,0.00,,2013-09-14 23:53:00,
2013-09-14 20:00:00,51.0,-99.9,-100.00,NW,307,104.0,-999.0,-999,-99.99,,,0.00,,2013-09-15 02:00:00,
2013-09-14 20:52:00,51.0,-99.9,-100.00,NW,307,104.0,-999.0,-999,-99.99,,,0.00,,2013-09-15 02:52:00,
2013-09-14 21:00:00,-999.0,-99.9,-100.00,NW,325,113.0,-999.0,-999,-99.99,,,-99.99,,2013-09-15 03:00:00,
2013-09-14 21:55:00,50.0,-99.9,-100.00,NW,325,113.0,-999.0,-999,-99.99,,,0.00,,2013-09-15 03:55:00,
2013-09-14 22:00:00,49.0,-99.9,-100.00,NNW,342,115.0,-999.0,-999,-99.99,,,0.01,,2013-09-15 04:00:00,
2013-09-14 22:55:00,49.0,-99.9,-100.00,NNW,342,115.0,-999.0,-999,-99.99,,,0.01,,2013-09-15 04:55:00,
2013-09-14 23:00:00,49.0,-99.9,-100.00,NNW,346,116.0,-999.0,-999,-99.99,,,0.01,,2013-09-15 05:00:00,
2013-09-14 23:53:00,49.0,-99.9,-100.00,NNW,346,116.0,-999.0,-999,-99.99,,,0.01,,2013-09-15 05:53:00,